Lewiston Nez Perce County Airport
KLWS : rendu visible

Aérodrome :











RETROUVEZ-NOUS SUR...

 
LOGIN :

S'inscrire | Disclaimer

   EN    FR    IT 

 









Légende :    VFR   VFR Marginal   IFR   IFR Intensif   IFR Très Intensif
Visi : 
Plafond : 
>= 8 km
>= 3000ft
5 à 8 km
1000 à 3000 ft
1500m à 5 km
500 à 1000 ft
800 à 1500m
200 à 500 ft
< 800m
< 200 ft
Symboles :   Orages  Brouillard  Fortes neiges  Fortes précipitations  Vent > 20 kt






- Altitude de l'aérodrome : 1442 ft
- Code IATA : LWS


KLWS - Lewiston Nez Perce County

DERNIER METAR :
  • 100656Z 00000KT 1/2SM FZFG VV002 M01/M01 A3029 RMK AO2 SLP271 T10061011

METARs EXPIRÉS :
  • 100556Z 14003KT 3/4SM BR VV002 M01/M02 A3029 RMK AO2 SLP272 T10061017 10000 21006 51003
  • 100514Z 15003KT 3/4SM BR VV002 M01/M02 A3029 RMK AO2 T10061017
  • 100456Z 12004KT 1 1/4SM BR OVC002 M01/M02 A3028 RMK AO2 SLP270 T10061017

TAF KLWS
Valide du 10 à 06h jusqu'au 11 à 06h UTC


100539Z 1006/1106 13003KT 1/2SM FG OVC002
FM101700 10004KT 4SM BR OVC007
FM102000 10004KT 4SM BR SCT004 OVC025
FM110100 VRB03KT P6SM SCT045 OVC100



MET'MAP, la Météo Aéronautique d'un coup d'oeil ! - Copyright ORBIFLY Décembre 2007 - Disclaimer

ORBIFLY MET'MAP TEAM :

Programmation & Développement : Alexandra Zaïnal
Sur une idée originale de : Baudouin d'Aumeries
Assistance à la programmation : Marc-Olivier Méhu
Soutien technique & logistique : Manuel Goepfert

Contact : metmap@orbifly.com




SOURCES & CREDITS :

   NOAA       Earth
Advisory